Tiempo atmosférico en la estación meteorológica de Ossa De Montiel, Albacete (905 m.)



Fecha
DESCASC
Temp. máxima en grados centígrados (hora)
DESCASC
Temp. mínima en grados centígrados (hora)
DESCASC
Temp. media en grados centígrados
DESCASC
Racha de viento máxima en m/sg (hora)
DESCASC
Velocidad máxima media en intervalos de 10 minutos(hora)
DESCASC
Precipitaciones diarias en mm
DESCASC
Precipitaciones de 00:00 a 06:00 en mm
DESCASC
Precipitaciones de 06:00 a 12:00 en mm
DESCASC
Precipitaciones de 12:00 a 18:00 en mm
DESCASC
Precipitaciones de 18:00 a 24:00 en mm
DESCASC
25-02-2021 18.5 (14:50) 4.5 (07:40) 11.5 9.17 (23:20) 4.44 (15:50) 0 0 0 0 0
24-02-2021 14.3 (15:50) 4.4 (04:10) 9.4 11.94 (12:30) 5.28 (11:10) 0 0 0 0 0
23-02-2021 12.4 (14:20) 2 (08:20) 7.2 9.17 (15:00) 5.28 (11:20) 0 0 0 0 0
22-02-2021 6.9 (18:00) 2.8 (08:10) 4.9 11.11 (04:20) 5.83 (00:50) 3.2 3 0 0.2 0
21-02-2021 11.7 (15:00) 4.4 (00:00) 8 10.56 (11:50) 5.56 (08:20) 6.4 0 0 0 6.4
20-02-2021 20.5 (15:40) 2.9 (00:00) 11.7 11.11 (14:00) 6.11 (14:00) 0 0 0 0 0
19-02-2021 19.9 (14:50) 1.8 (00:00) 10.8 10 (13:10) 5 (14:20) 0 0 0 0 0
18-02-2021 18.6 (13:10) 0.9 (00:00) 9.8 8.33 (14:00) 3.89 (14:30) 0 0 0 0 0
17-02-2021 21.6 (15:20) 0.9 (00:00) 11.3 6.67 (13:40) 3.33 (13:40) 0 0 0 0 0
16-02-2021 19.2 (14:10) 1 (00:00) 10.1 6.67 (13:10) 3.61 (13:10) 0 0 0 0 0
15-02-2021 18 (14:40) 3 (00:00) 10.5 5 (11:20) 2.5 (11:30) 0 0 0 0 0
14-02-2021 17.6 (15:10) 0.2 (00:00) 8.9 7.5 (15:40) 2.78 (12:10) 0 0 0 0 0
13-02-2021 15.6 (15:10) -0.3 (00:00) 7.7 6.39 (14:00) 3.33 (13:30) 0 0 0 0 0
12-02-2021 13 (16:20) 5.5 (00:00) 9.3 12.22 (09:20) 6.11 (09:10) 0.2 0 0.2 0 0
11-02-2021 15.7 (12:20) 5.2 (00:00) 10.4 6.67 (10:50) 3.61 (11:10) 0 0 0 0 0
10-02-2021 13 (14:50) 4.8 (00:00) 8.9 17.5 (04:10) 9.72 (04:10) 1.6 1.6 0 0 0
09-02-2021 9.3 (14:20) 5.3 (00:00) 7.3 15.56 (16:10) 9.17 (15:00) 4.8 0 0 2.6 2.2
08-02-2021 8.5 (15:50) 3.9 (00:00) 6.2 15.83 (08:10) 7.78 (03:40) 9.8 0.2 6.8 2.2 0.6
07-02-2021 8.1 (15:10) 3.7 (00:00) 5.9 11.67 (17:20) 5.83 (16:40) 3.4 1.2 0.8 0.4 1
06-02-2021 8.4 (11:40) 5.8 (00:00) 7.1 11.39 (11:00) 6.67 (11:10) 2.4 1.2 0.4 0.8 0
05-02-2021 19.3 (14:50) 6.7 (00:00) 13 14.17 (20:40) 6.11 (20:40) 15.6 0 0 0 15.6
04-02-2021 19.2 (13:40) 4.6 (00:00) 11.9 13.06 (14:40) 6.67 (15:20) 0 0 0 0 0
03-02-2021 15.6 (14:40) 6.2 (00:00) 10.9 7.5 (11:00) 4.44 (01:40) 0 0 0 0 0
02-02-2021 15.8 (15:20) 6.1 (00:00) 11 8.33 (00:10) 4.17 (00:10) 0 0 0 0 0
01-02-2021 13.4 (12:50) 7.3 (00:00) 10.3 13.61 (00:30) 6.67 (04:40) 0 0 0 0 0
31-01-2021 9.9 (23:59) 5.1 (00:00) 7.5 12.78 (23:40) 6.39 (23:50) 4 0 0.4 2.2 1.4
30-01-2021 11.9 (14:10) 5.8 (00:00) 8.8 16.11 (15:40) 8.33 (14:30) 1.8 0 1.8 0 0

Gráficas

Temp. máximas Temp. mínimas Temp. medias Precipitaciones Rachas de viento máximas Velocidades máximas media en intervalos de 10 minutos

Datos horarios

Fecha y hora oficial Temperatura (ºC) Velocidad del viento (km/h) Dirección del viento Racha (km/h) Dirección de racha Precipitación (mm) Presión (hPa) Tendencia (hPa) Humedad (%)
2021-02-28 23:00:00 6.8 18 Sudeste 35 Sur 0 -- -- 83
2021-02-28 22:00:00 7 12 Sur 30 Sudeste 0 -- -- 83
2021-02-28 21:00:00 7.1 11 Sur 37 Sudeste 0 -- -- 80
2021-02-28 20:00:00 7.6 13 Sur 31 Sur 0 -- -- 75
2021-02-28 19:00:00 8.5 13 Sur 45 Sur 0 -- -- 69
2021-02-28 18:00:00 9.6 16 Sur 40 Sur 0 -- -- 66
2021-02-28 17:00:00 10.6 15 Sur 37 Sur 0 -- -- 64
2021-02-28 16:00:00 12.1 15 Sur 38 Sur 0 -- -- 58
2021-02-28 15:00:00 12.8 15 Sur 36 Sur 0 -- -- 54
2021-02-28 14:00:00 12.6 18 Sur 38 Sur 0 -- -- 53
2021-02-28 13:00:00 12.6 18 Sur 37 Sur 0 -- -- 54
2021-02-28 12:00:00 11.8 15 Sur 31 Sur 0 -- -- 57
2021-02-28 11:00:00 9.4 13 Sur 31 Sur 0 -- -- 64
2021-02-28 10:00:00 8.6 18 Sur 35 Sur 0 -- -- 72
2021-02-28 09:00:00 6.4 13 Sur 31 Sur 0 -- -- 79
2021-02-28 08:00:00 4.3 9 Sur 28 Sur 0 -- -- 84
2021-02-28 07:00:00 4.4 10 Sur 27 Sur 0 -- -- 85
2021-02-28 06:00:00 4.7 14 Sur 35 Sur 0 -- -- 86
2021-02-28 05:00:00 4.9 12 Sur 35 Sur 0 -- -- 89
2021-02-28 04:00:00 4.9 9 Sur 28 Sudeste 0 -- -- 87
2021-02-28 03:00:00 5.1 8 Sudeste 26 Sudeste 0 -- -- 84
2021-02-28 02:00:00 6.1 10 Sur 24 Sudeste 0 -- -- 78
2021-02-28 01:00:00 5.7 0 Calma 10 Sudeste 0 -- -- 73
2021-02-28 00:00:00 6.3 3 Sur 14 Sudeste 0 -- -- 67
2021-02-27 23:00:00 6.8 4 Sudeste 13 Sudeste 0 -- -- 62
2021-02-27 22:00:00 7.2 3 Sudeste 10 Sur 0 -- -- 61
2021-02-27 21:00:00 8.4 3 Sudeste 9 Sudeste 0 -- -- 56
2021-02-27 20:00:00 10 3 Sudeste 11 Sudeste 0 -- -- 57
2021-02-27 19:00:00 12 6 Sudeste 23 Sudeste 0 -- -- 52
2021-02-27 18:00:00 13.7 12 Sudeste 23 Sur 0 -- -- 46
2021-02-27 17:00:00 14.1 11 Sudeste 25 Sudeste 0 -- -- 44
2021-02-27 16:00:00 14.8 11 Sudeste 33 Sudeste 0 -- -- 42
2021-02-27 15:00:00 14.9 14 Sudeste 26 Sudeste 0 -- -- 37
2021-02-27 14:00:00 16 10 Sudeste 25 Sudeste 0 -- -- 35
2021-02-27 13:00:00 15.1 12 Sudeste 29 Sudeste 0 -- -- 32
2021-02-27 12:00:00 13.7 13 Sudeste 29 Sudeste 0 -- -- 33
2021-02-27 11:00:00 11.8 14 Sudeste 31 Sur 0 -- -- 43
2021-02-27 10:00:00 11.2 9 Sur 24 Sudeste 0 -- -- 44
2021-02-27 09:00:00 9.4 0 Calma 6 Sur 0 -- -- 51
2021-02-27 08:00:00 3.6 2 Norte 6 Sur 0 -- -- 71
2021-02-27 07:00:00 2.6 0 Calma 5 Sudeste 0 -- -- 82
2021-02-27 06:00:00 3.1 3 Sudeste 5 Sudeste 0 -- -- 82
2021-02-27 05:00:00 3.5 2 Sudoeste 5 Sur 0 -- -- 81
2021-02-27 04:00:00 3.8 2 Sudeste 9 Sudeste 0 -- -- 83
2021-02-27 03:00:00 4.3 2 Sur 9 Sudeste 0 -- -- 85
2021-02-27 02:00:00 5.8 5 Sudeste 13 Sudeste 0 -- -- 82
2021-02-27 01:00:00 5.6 0 Calma 6 Sudeste 0 -- -- 87
2021-02-27 00:00:00 6 4 Sudeste 10 Sudeste 0 -- -- 87
2021-02-26 23:00:00 6.8 4 Sudeste 14 Sudeste 0 -- -- 86
2021-02-26 22:00:00 7.7 3 Sudeste 11 Sudeste 0 -- -- 81
2021-02-26 21:00:00 8.7 4 Sudeste 21 Sur 0 -- -- 78
2021-02-26 20:00:00 9.9 11 Sudeste 24 Sudeste 0 -- -- 74
2021-02-26 19:00:00 11.4 11 Sudeste 30 Sudeste 0 -- -- 66
2021-02-26 18:00:00 13.3 13 Sudeste 28 Sudeste 0 -- -- 54
2021-02-26 17:00:00 14 13 Sudeste 31 Sudeste 0 -- -- 54
2021-02-26 16:00:00 14.8 12 Sudeste 31 Sudeste 0 -- -- 53
2021-02-26 15:00:00 14.7 15 Sudeste 26 Sudeste 0 -- -- 54
2021-02-26 14:00:00 15.4 9 Sur 24 Sur 0 -- -- 50
2021-02-26 13:00:00 15.2 11 Sur 32 Sur 0 -- -- 48
2021-02-26 12:00:00 12.7 14 Sur 36 Sur 0 -- -- 58
2021-02-26 11:00:00 10.9 10 Sur 35 Sur 0 -- -- 67
2021-02-26 10:00:00 9.1 12 Sur 32 Sur 0 -- -- 75
2021-02-26 09:00:00 7.2 9 Sur 23 Sudeste 0 -- -- 84
2021-02-26 08:00:00 6 9 Sudeste 25 Sur 0 -- -- 90
2021-02-26 07:00:00 6.3 11 Sudeste 24 Sudeste 0 -- -- 88
2021-02-26 06:00:00 6.6 15 Sudeste 30 Sudeste 0 -- -- 85
2021-02-26 05:00:00 7.1 11 Sur 28 Sur 0 -- -- 81
2021-02-26 04:00:00 7.1 9 Sudeste 27 Sudeste 0 -- -- 80
2021-02-26 03:00:00 7 9 Sur 26 Sur 0 -- -- 81
2021-02-26 02:00:00 7.3 8 Sur 28 Sur 0 -- -- 81
2021-02-26 01:00:00 7.5 7 Sur 23 Sudeste 0 -- -- 83
2021-02-26 00:00:00 8.1 11 Sur 33 Sur 0 -- -- 80
2021-02-25 23:00:00 8.5 10 Sur 29 Sudeste 0 -- -- 80
2021-02-25 22:00:00 8.8 8 Sur 24 Sur 0 -- -- 78
2021-02-25 21:00:00 9.3 6 Sur 25 Sudeste 0 -- -- 77
2021-02-25 20:00:00 10.2 9 Sur 25 Sur 0 -- -- 74
2021-02-25 19:00:00 11.9 12 Sudeste 31 Sur 0 -- -- 65
2021-02-25 18:00:00 13.9 12 Sur 28 Sudeste 0 -- -- 56
2021-02-25 17:00:00 16.1 13 Sur 30 Sur 0 -- -- 40
2021-02-25 16:00:00 16.5 15 Sur 28 Sur 0 -- -- 40
2021-02-25 15:00:00 18.1 9 Sur 21 Sur 0 -- -- 41
2021-02-25 14:00:00 18 8 Sur 20 Sudeste 0 -- -- 41
2021-02-25 13:00:00 17.3 8 Sur 18 Sudeste 0 -- -- 47
2021-02-25 12:00:00 16.5 6 Sur 13 Sur 0 -- -- 52
2021-02-25 11:00:00 13.6 4 Sur 10 Sur 0 -- -- 57
2021-02-25 10:00:00 10.3 4 Sur 10 Sudeste 0 -- -- 67
2021-02-25 09:00:00 6.3 3 Sur 10 Sudeste 0 -- -- 79
2021-02-25 08:00:00 4.7 0 Calma 12 Sudeste 0 -- -- 83
2021-02-25 07:00:00 4.8 4 Sur 21 Sudeste 0 -- -- 84
2021-02-25 06:00:00 4.9 9 Sudeste 22 Sur 0 -- -- 84
2021-02-25 05:00:00 5 7 Sur 27 Sudeste 0 -- -- 84
2021-02-25 04:00:00 5.4 9 Sur 24 Sudeste 0 -- -- 83
2021-02-25 03:00:00 5.6 6 Sur 22 Sur 0 -- -- 82
2021-02-25 02:00:00 5.9 8 Sur 28 Sudeste 0 -- -- 82
2021-02-25 01:00:00 6.3 8 Sur 24 Sur 0 -- -- 83
2021-02-25 00:00:00 6.7 8 Sur 26 Sudeste 0 -- -- 78
2021-02-24 23:00:00 7.3 9 Sur 22 Sur 0 -- -- 74
2021-02-24 22:00:00 7.6 8 Sur 22 Sur 0 -- -- 75
2021-02-24 21:00:00 8.2 8 Sur 23 Sur 0 -- -- 75
2021-02-24 20:00:00 9 8 Sur 21 Sudeste 0 -- -- 72
2021-02-24 19:00:00 10.8 7 Sur 26 Sur 0 -- -- 63
2021-02-24 18:00:00 12.9 12 Sur 33 Sur 0 -- -- 54
2021-02-24 17:00:00 13.8 16 Sudeste 37 Sudeste 0 -- -- 52
2021-02-24 16:00:00 14.3 12 Sur 33 Sur 0 -- -- 50
2021-02-24 15:00:00 13.5 18 Sudeste 35 Sudeste 0 -- -- 55
2021-02-24 14:00:00 12.9 17 Sur 34 Sudeste 0 -- -- 61
2021-02-24 13:00:00 12.6 15 Sur 43 Sur 0 -- -- 62
2021-02-24 12:00:00 12 17 Sur 36 Sur 0 -- -- 66
2021-02-24 11:00:00 11.3 14 Sur 36 Sudeste 0 -- -- 71
2021-02-24 10:00:00 9.6 12 Sur 28 Sudeste 0 -- -- 78
2021-02-24 09:00:00 6.7 13 Sudeste 30 Sudeste 0 -- -- 86
2021-02-24 08:00:00 4.7 13 Sudeste 28 Sudeste 0 -- -- 88
2021-02-24 07:00:00 4.9 7 Sudeste 23 Sudeste 0 -- -- 89
2021-02-24 06:00:00 5.8 9 Sur 21 Sur 0 -- -- 87
2021-02-24 05:00:00 5.3 7 Sur 17 Sur 0 -- -- 88
2021-02-24 04:00:00 4.6 9 Sudoeste 20 Sur 0 -- -- 88
2021-02-24 03:00:00 5.2 7 Sur 20 Sur 0 -- -- 85
2021-02-24 02:00:00 5.5 7 Sur 20 Sur 0 -- -- 85
2021-02-24 01:00:00 5.6 10 Sur 21 Sur 0 -- -- 87
2021-02-24 00:00:00 5.9 6 Sur 21 Sur 0 -- -- 86
2021-02-23 23:00:00 6.7 8 Sur 21 Sur 0 -- -- 81
2021-02-23 22:00:00 6.7 7 Sudeste 18 Sudeste 0 -- -- 80
2021-02-23 21:00:00 7.3 9 Sudeste 22 Sur 0 -- -- 76
2021-02-23 20:00:00 7.6 8 Sudeste 17 Sudeste 0 -- -- 75
2021-02-23 19:00:00 9.4 12 Sudeste 23 Sudeste 0 -- -- 67
2021-02-23 18:00:00 10.8 14 Sudeste 30 Sudeste 0 -- -- 61
2021-02-23 17:00:00 11.9 10 Sudeste 28 Sudeste 0 -- -- 55
2021-02-23 16:00:00 12.2 12 Sudeste 30 Sudeste 0 -- -- 58
2021-02-23 15:00:00 11.9 17 Sudeste 33 Sudeste 0 -- -- 55
2021-02-23 14:00:00 12 13 Sudeste 30 Sur 0 -- -- 58
2021-02-23 13:00:00 10.3 13 Sudeste 29 Sudeste 0 -- -- 65
2021-02-23 12:00:00 8.7 16 Sudeste 32 Sur 0 -- -- 73
2021-02-23 11:00:00 9.8 9 Sur 29 Sudeste 0 -- -- 68
2021-02-23 10:00:00 7.8 6 Sudeste 22 Sudeste 0 -- -- 79
2021-02-23 09:00:00 2.6 3 Sudeste 6 Sudeste 0 -- -- 96
2021-02-23 08:00:00 2.1 0 Calma 4 Sudeste 0 -- -- 96
2021-02-23 07:00:00 3.1 0 Calma 3 Sudeste 0 -- -- 95
2021-02-23 06:00:00 3.6 0 Calma 2 Sudeste 0 -- -- 96
2021-02-23 05:00:00 3.3 0 Calma 3 Sudeste 0 -- -- 96
2021-02-23 04:00:00 3.5 0 Calma 4 Sudeste 0 -- -- 94
2021-02-23 03:00:00 4 0 Calma 0 Calma 0 -- -- 94
2021-02-23 02:00:00 3.5 0 Calma 3 Sudeste 0 -- -- 94
2021-02-23 01:00:00 3.6 0 Calma 2 Este 0 -- -- 93
2021-02-23 00:00:00 3.5 0 Calma 4 Sudoeste 0 -- -- 92
2021-02-22 23:00:00 3.4 0 Calma 5 Este 0 -- -- 91
2021-02-22 22:00:00 4.9 0 Calma 5 Noroeste 0 -- -- 85
2021-02-22 21:00:00 5.5 2 Noroeste 4 Noroeste 0 -- -- 82
2021-02-22 20:00:00 5.8 0 Calma 4 Norte 0 -- -- 82
2021-02-22 19:00:00 6.3 0 Calma 13 Noroeste 0 -- -- 78
2021-02-22 18:00:00 6.9 5 Norte 17 Oeste 0 -- -- 74
2021-02-22 17:00:00 6.5 4 Norte 15 Norte 0.2 -- -- 80
2021-02-22 16:00:00 6.5 6 Noroeste 25 Noroeste 0 -- -- 77
2021-02-22 15:00:00 6.7 8 Noroeste 20 Oeste 0 -- -- 74
2021-02-22 14:00:00 6.3 10 Noroeste 24 Noroeste 0 -- -- 74
2021-02-22 13:00:00 5.8 9 Noroeste 23 Oeste 0 -- -- 77
2021-02-22 12:00:00 5.8 12 Noroeste 25 Noroeste 0 -- -- 82
2021-02-22 11:00:00 4.4 10 Noroeste 25 Noroeste 0 -- -- 88
2021-02-22 10:00:00 3.3 11 Noroeste 29 Noroeste 0 -- -- 91
2021-02-22 09:00:00 2.9 12 Oeste 27 Oeste 0 -- -- 93
2021-02-22 08:00:00 2.9 13 Noroeste 29 Oeste 0 -- -- 95
2021-02-22 07:00:00 3.2 15 Oeste 36 Oeste 0 -- -- 95
2021-02-22 06:00:00 3.3 14 Noroeste 32 Noroeste 0.8 -- -- 96
2021-02-22 05:00:00 3.4 16 Noroeste 40 Noroeste 1 -- -- 95
2021-02-22 04:00:00 4.2 17 Noroeste 36 Noroeste 0.4 -- -- 94
2021-02-22 03:00:00 4.3 18 Noroeste 35 Oeste 0.6 -- -- 93
2021-02-22 02:00:00 4.6 18 Noroeste 39 Oeste 0.2 -- -- 92
2021-02-22 01:00:00 4.8 20 Noroeste 38 Noroeste 0 -- -- 89
2021-02-22 00:00:00 4.5 19 Noroeste 38 Oeste 0 -- -- 94
2021-02-21 23:00:00 4.9 20 Noroeste 36 Oeste 0.4 -- -- 95
2021-02-21 22:00:00 6 15 Oeste 33 Oeste 2 -- -- 94
2021-02-21 21:00:00 6.4 15 Oeste 29 Oeste 0.6 -- -- 92
2021-02-21 20:00:00 7.7 9 Oeste 17 Noroeste 0.8 -- -- 92
2021-02-21 19:00:00 8.5 4 Noroeste 18 Sudeste 2.6 -- -- 90
2021-02-21 18:00:00 9.7 7 Sudeste 25 Sudeste 0 -- -- 81
2021-02-21 17:00:00 10.7 12 Sudeste 28 Sur 0 -- -- 73
2021-02-21 16:00:00 11.6 13 Sudeste 27 Sur 0 -- -- 69
2021-02-21 15:00:00 11.7 11 Sur 26 Sudeste 0 -- -- 68
2021-02-21 14:00:00 11 12 Sur 31 Sudeste 0 -- -- 71
2021-02-21 13:00:00 10 11 Sur 30 Sur 0 -- -- 76
2021-02-21 12:00:00 9.6 13 Sur 38 Sur 0 -- -- 77
2021-02-21 11:00:00 8.2 13 Sudeste 32 Sudeste 0 -- -- 82
2021-02-21 10:00:00 7.6 17 Sudeste 32 Sur 0 -- -- 82
2021-02-21 09:00:00 6.9 20 Sudeste 36 Sur 0 -- -- 84
2021-02-21 08:00:00 6.2 15 Sudeste 29 Sur 0 -- -- 84
2021-02-21 07:00:00 6.3 10 Sur 32 Sur 0 -- -- 81
2021-02-21 06:00:00 6.8 8 Sur 27 Sur 0 -- -- 75
2021-02-21 05:00:00 7 10 Sudeste 33 Sudeste 0 -- -- 75
2021-02-21 04:00:00 7.6 12 Sur 36 Sudeste 0 -- -- 71
2021-02-21 03:00:00 8.1 12 Sur 27 Sur 0 -- -- 70
2021-02-21 02:00:00 9.5 9 Sur 27 Sudeste 0 -- -- 63
2021-02-21 01:00:00 9.7 8 Sur 24 Sur 0 -- -- 65
2021-02-21 00:00:00 9.9 9 Sur 23 Sur 0 -- -- 68
2021-02-20 23:00:00 10.1 6 Sur 17 Sur 0 -- -- 68
2021-02-20 22:00:00 10.4 5 Sudeste 10 Sudeste 0 -- -- 65
2021-02-20 21:00:00 11.2 2 Sudeste 7 Sur 0 -- -- 59
2021-02-20 20:00:00 12.2 0 Calma 8 Sudeste 0 -- -- 52
2021-02-20 19:00:00 14.7 4 Sudeste 11 Este 0 -- -- 38
2021-02-20 18:00:00 17.8 7 Oeste 22 Oeste 0 -- -- 27
2021-02-20 17:00:00 19.2 14 Oeste 28 Oeste 0 -- -- 22
2021-02-20 16:00:00 19.7 15 Oeste 31 Oeste 0 -- -- 20
2021-02-20 15:00:00 19.9 19 Oeste 40 Oeste 0 -- -- 21
2021-02-20 14:00:00 20.2 22 Oeste 40 Oeste 0 -- -- 18
2021-02-20 13:00:00 19.2 18 Oeste 31 Sudoeste 0 -- -- 24
2021-02-20 12:00:00 18.6 16 Oeste 28 Sudoeste 0 -- -- 24
2021-02-20 11:00:00 17.3 10 Sudoeste 22 Sudoeste 0 -- -- 30
2021-02-20 10:00:00 15 0 Calma 4 Sudeste 0 -- -- 40
2021-02-20 09:00:00 7 2 Sudeste 7 Sudeste 0 -- -- 56
2021-02-20 08:00:00 4.5 2 Sudeste 5 Sudeste 0 -- -- 67
2021-02-20 07:00:00 3.6 2 Sur 4 Sur 0 -- -- 75
2021-02-20 06:00:00 3.1 0 Calma 4 Sur 0 -- -- 78
2021-02-20 05:00:00 3.2 0 Calma 2 Oeste 0 -- -- 78
2021-02-20 04:00:00 3.4 0 Calma 3 Sur 0 -- -- 79
2021-02-20 03:00:00 3.6 0 Calma 2 Sudoeste 0 -- -- 79
2021-02-20 02:00:00 5 0 Calma 4 Sudeste 0 -- -- 76
2021-02-20 01:00:00 5.5 0 Calma 5 Sudeste 0 -- -- 74
2021-02-20 00:00:00 6.7 0 Calma 4 Sudeste 0 -- -- 69
2021-02-19 23:00:00 7.6 3 Sudeste 6 Sudeste 0 -- -- 63
2021-02-19 22:00:00 7.6 4 Sudeste 8 Sudeste 0 -- -- 53
2021-02-19 21:00:00 8.3 3 Sudeste 5 Sudeste 0 -- -- 52
2021-02-19 20:00:00 11 0 Calma 9 Oeste 0 -- -- 41
2021-02-19 19:00:00 14.7 7 Oeste 23 Oeste 0 -- -- 29
2021-02-19 18:00:00 17 14 Oeste 28 Oeste 0 -- -- 24
2021-02-19 17:00:00 18.2 12 Oeste 32 Oeste 0 -- -- 23
2021-02-19 16:00:00 19.3 15 Oeste 31 Oeste 0 -- -- 22
2021-02-19 15:00:00 19.9 14 Oeste 32 Oeste 0 -- -- 22
2021-02-19 14:00:00 19.5 16 Oeste 36 Oeste 0 -- -- 22
2021-02-19 13:00:00 19.3 14 Oeste 32 Oeste 0 -- -- 24
2021-02-19 12:00:00 17.9 10 Sudoeste 22 Oeste 0 -- -- 28
2021-02-19 11:00:00 16.7 2 Oeste 6 Sur 0 -- -- 41
2021-02-19 10:00:00 11.4 3 Sur 5 Sur 0 -- -- 61
2021-02-19 09:00:00 5.6 0 Calma 3 Sur 0 -- -- 95
2021-02-19 08:00:00 1.8 2 Sudeste 4 Sudeste 0 -- -- 96
2021-02-19 07:00:00 2 0 Calma 5 Sudeste 0 -- -- 95
2021-02-19 06:00:00 3 4 Sudeste 6 Sudeste 0 -- -- 95
2021-02-19 05:00:00 2.8 0 Calma 4 Sur 0 -- -- 94
2021-02-19 04:00:00 3.6 2 Sudeste 5 Sur 0 -- -- 92
2021-02-19 03:00:00 4.1 0 Calma 6 Sudeste 0 -- -- 91
2021-02-19 02:00:00 4 2 Sudeste 5 Sudeste 0 -- -- 88
2021-02-19 01:00:00 4.1 2 Sudeste 5 Sur 0 -- -- 85
2021-02-19 00:00:00 4.4 0 Calma 4 Sur 0 -- -- 75
2021-02-18 23:00:00 5.2 2 Sudeste 4 Sudeste 0 -- -- 72
2021-02-18 22:00:00 6.8 2 Sur 10 Sudoeste 0 -- -- 65
2021-02-18 21:00:00 8.1 0 Calma 5 Sudeste 0 -- -- 60
2021-02-18 20:00:00 10 0 Calma 6 Norte 0 -- -- 53
2021-02-18 19:00:00 13.1 0 Calma 13 Noroeste 0 -- -- 41
2021-02-18 18:00:00 15.5 5 Noroeste 21 Noroeste 0 -- -- 34
2021-02-18 17:00:00 16.9 10 Noroeste 24 Noroeste 0 -- -- 28
2021-02-18 16:00:00 17.7 12 Noroeste 26 Noroeste 0 -- -- 27
2021-02-18 15:00:00 17.7 10 Noroeste 28 Noroeste 0 -- -- 27
2021-02-18 14:00:00 18.5 13 Noroeste 30 Noroeste 0 -- -- 29
2021-02-18 13:00:00 18.4 9 Noroeste 25 Oeste 0 -- -- 28
2021-02-18 12:00:00 17.7 6 Noroeste 13 Noroeste 0 -- -- 39
2021-02-18 11:00:00 14.3 3 Sudoeste 6 Sudoeste 0 -- -- 49
2021-02-18 10:00:00 11.7 0 Calma 3 Sudeste 0 -- -- 55
2021-02-18 09:00:00 5 0 Calma 2 Sudeste 0 -- -- 72
2021-02-18 08:00:00 1 0 Calma 2 Sudeste 0 -- -- 87
2021-02-18 07:00:00 1.1 0 Calma 3 Sudeste 0 -- -- 85
2021-02-18 06:00:00 1.7 0 Calma 2 Sudeste 0 -- -- 84
2021-02-18 05:00:00 2.3 0 Calma 0 Calma 0 -- -- 82
2021-02-18 04:00:00 2.9 0 Calma 0 Calma 0 -- -- 81
2021-02-18 03:00:00 3.5 0 Calma 2 Sudoeste 0 -- -- 82
2021-02-18 02:00:00 4.3 0 Calma 2 Oeste 0 -- -- 79
2021-02-18 01:00:00 4.7 0 Calma 3 Sur 0 -- -- 78
2021-02-18 00:00:00 5.7 0 Calma 2 Sur 0 -- -- 74
2021-02-17 23:00:00 6.8 0 Calma 11 Sur 0 -- -- 70
2021-02-17 22:00:00 8.2 0 Calma 2 Norte 0 -- -- 62
2021-02-17 21:00:00 9.2 0 Calma 3 Sudeste 0 -- -- 57
2021-02-17 20:00:00 11.4 0 Calma 9 Norte 0 -- -- 48
2021-02-17 19:00:00 15 3 Nordeste 9 Noroeste 0 -- -- 35
2021-02-17 18:00:00 18.1 3 Norte 19 Noroeste 0 -- -- 25
2021-02-17 17:00:00 19.8 7 Noroeste 18 Noroeste 0 -- -- 22
2021-02-17 16:00:00 20.7 8 Oeste 23 Oeste 0 -- -- 21
2021-02-17 15:00:00 21.4 8 Oeste 24 Oeste 0 -- -- 21
2021-02-17 14:00:00 21.3 9 Oeste 24 Oeste 0 -- -- 20
2021-02-17 13:00:00 21 11 Oeste 19 Oeste 0 -- -- 23
2021-02-17 12:00:00 18.5 6 Sudoeste 11 Sudoeste 0 -- -- 35
2021-02-17 11:00:00 16.6 0 Calma 4 Oeste 0 -- -- 41
2021-02-17 10:00:00 12.4 0 Calma 4 Sur 0 -- -- 51
2021-02-17 09:00:00 4.4 0 Calma 2 Sudeste 0 -- -- 77
2021-02-17 08:00:00 1.1 0 Calma 2 Sudeste 0 -- -- 86
2021-02-17 07:00:00 1.3 0 Calma 2 Sudeste 0 -- -- 87
2021-02-17 06:00:00 1.9 0 Calma 2 Sudeste 0 -- -- 84
2021-02-17 05:00:00 2.6 0 Calma 2 Sudeste 0 -- -- 83
2021-02-17 04:00:00 3.7 0 Calma 3 Este 0 -- -- 79
2021-02-17 03:00:00 4 0 Calma 5 Sudeste 0 -- -- 77
2021-02-17 02:00:00 4.4 3 Sudeste 6 Sudeste 0 -- -- 76
2021-02-17 01:00:00 5.1 3 Sudeste 6 Sudeste 0 -- -- 74
2021-02-17 00:00:00 5.6 4 Sudeste 6 Sudeste 0 -- -- 73
2021-02-16 23:00:00 6.5 2 Sur 5 Sudeste 0 -- -- 69
2021-02-16 22:00:00 7.2 3 Sudeste 4 Sudeste 0 -- -- 71
2021-02-16 21:00:00 8.4 0 Calma 5 Sur 0 -- -- 66
2021-02-16 20:00:00 10.8 0 Calma 4 Noroeste 0 -- -- 58
2021-02-16 19:00:00 14 0 Calma 9 Noroeste 0 -- -- 43
2021-02-16 18:00:00 16.6 4 Noroeste 17 Noroeste 0 -- -- 34
2021-02-16 17:00:00 17.5 8 Noroeste 22 Noroeste 0 -- -- 31
2021-02-16 16:00:00 18.3 12 Noroeste 23 Noroeste 0 -- -- 31
2021-02-16 15:00:00 18.9 11 Noroeste 24 Noroeste 0 -- -- 29
2021-02-16 14:00:00 18.8 12 Noroeste 24 Oeste 0 -- -- 29
2021-02-16 13:00:00 18.3 13 Oeste 20 Oeste 0 -- -- 31
2021-02-16 12:00:00 16.9 10 Oeste 19 Oeste 0 -- -- 37
2021-02-16 11:00:00 13.2 5 Sudoeste 10 Sudoeste 0 -- -- 56
2021-02-16 10:00:00 10.7 0 Calma 3 Sudeste 0 -- -- 64
2021-02-16 09:00:00 3.8 0 Calma 2 Sudeste 0 -- -- 89
2021-02-16 08:00:00 1 0 Calma 3 Sudeste 0 -- -- 94
2021-02-16 07:00:00 1.4 0 Calma 4 Sur 0 -- -- 93
2021-02-16 06:00:00 1.5 0 Calma 2 Sur 0 -- -- 94
2021-02-16 05:00:00 1.6 0 Calma 3 Sur 0 -- -- 93
2021-02-16 04:00:00 2.9 2 Sudoeste 2 Sur 0 -- -- 90
2021-02-16 03:00:00 3.7 0 Calma 6 Sudoeste 0 -- -- 87
2021-02-16 02:00:00 4.4 2 Sudoeste 3 Sudoeste 0 -- -- 87
2021-02-16 01:00:00 4.6 0 Calma 4 Sudeste 0 -- -- 88
2021-02-16 00:00:00 5.3 0 Calma 4 Sudeste 0 -- -- 85
2021-02-15 23:00:00 6 2 Este 9 Sur 0 -- -- 84
2021-02-15 22:00:00 6.8 2 Este 9 Sur 0 -- -- 82
2021-02-15 21:00:00 7.9 4 Sur 8 Sur 0 -- -- 78
2021-02-15 20:00:00 10.3 0 Calma 6 Sudoeste 0 -- -- 64
2021-02-15 19:00:00 13.1 3 Sudoeste 13 Oeste 0 -- -- 52
2021-02-15 18:00:00 15.6 8 Oeste 15 Oeste 0 -- -- 45
2021-02-15 17:00:00 17.1 4 Sudoeste 12 Sudoeste 0 -- -- 44
2021-02-15 16:00:00 17.3 6 Sudoeste 13 Sudoeste 0 -- -- 40
2021-02-15 15:00:00 16.8 3 Sur 11 Este 0 -- -- 43
2021-02-15 14:00:00 16.6 3 Sur 11 Sudeste 0 -- -- 47
2021-02-15 13:00:00 14.9 4 Sur 15 Sur 0 -- -- 52
2021-02-15 12:00:00 12.8 8 Sur 18 Sur 0 -- -- 58
2021-02-15 11:00:00 12.2 6 Sur 14 Sur 0 -- -- 62
2021-02-15 10:00:00 9 5 Sur 11 Sur 0 -- -- 75
2021-02-15 09:00:00 5 2 Sudoeste 7 Sur 0 -- -- 89
2021-02-15 08:00:00 3 0 Calma 5 Sudeste 0 -- -- 94
2021-02-15 07:00:00 3.5 3 Sur 6 Sur 0 -- -- 94
2021-02-15 06:00:00 4 0 Calma 9 Sudeste 0 -- -- 93
2021-02-15 05:00:00 4.5 3 Sudeste 6 Sudeste 0 -- -- 94
2021-02-15 04:00:00 5 2 Sur 9 Sur 0 -- -- 92
2021-02-15 03:00:00 5.4 3 Sur 7 Sur 0 -- -- 91
2021-02-15 02:00:00 5.9 3 Sur 10 Sudeste 0 -- -- 90
2021-02-15 01:00:00 6.1 4 Sudeste 15 Sudeste 0 -- -- 88
2021-02-15 00:00:00 6.6 5 Sur 14 Sur 0 -- -- 87
2021-02-14 23:00:00 7 5 Sudeste 13 Sur 0 -- -- 85
2021-02-14 22:00:00 7.5 5 Sur 21 Sudeste 0 -- -- 82
2021-02-14 21:00:00 8.6 7 Sur 18 Sudeste 0 -- -- 75
2021-02-14 20:00:00 10 7 Sur 23 Sur 0 -- -- 67
2021-02-14 19:00:00 12.3 8 Sur 23 Sudeste 0 -- -- 58
2021-02-14 18:00:00 14.9 9 Sudeste 19 Sudeste 0 -- -- 43
2021-02-14 17:00:00 16.3 6 Sur 15 Sur 0 -- -- 37
2021-02-14 16:00:00 16.7 8 Sur 27 Sur 0 -- -- 37
2021-02-14 15:00:00 16.8 6 Sur 21 Sudeste 0 -- -- 43
2021-02-14 14:00:00 16.4 7 Sudeste 17 Sudeste 0 -- -- 44
2021-02-14 13:00:00 15.3 8 Sur 19 Sudeste 0 -- -- 46
2021-02-14 12:00:00 13.8 9 Sur 23 Sudeste 0 -- -- 49
2021-02-14 11:00:00 12.4 6 Sur 18 Sudeste 0 -- -- 57
2021-02-14 10:00:00 10.6 2 Sur 6 Sudeste 0 -- -- 65
2021-02-14 09:00:00 3.4 0 Calma 3 Sudeste 0 -- -- 96
2021-02-14 08:00:00 0.7 0 Calma 0 Calma 0 -- -- 95
2021-02-14 07:00:00 1.1 0 Calma 5 Sudeste 0 -- -- 95
2021-02-14 06:00:00 1 4 Sudeste 7 Sudeste 0 -- -- 96
2021-02-14 05:00:00 0.3 0 Calma 4 Sudeste 0 -- -- 94
2021-02-14 04:00:00 1 0 Calma 5 Sudeste 0 -- -- 93
2021-02-14 03:00:00 2.1 2 Sudoeste 3 Sudoeste 0 -- -- 91
2021-02-14 02:00:00 2.4 0 Calma 2 Sudeste 0 -- -- 91
2021-02-14 01:00:00 3.1 0 Calma 3 Sur 0 -- -- 90
2021-02-14 00:00:00 3.4 0 Calma 4 Sudeste 0 -- -- 89
2021-02-13 23:00:00 4.3 0 Calma 5 Sudeste 0 -- -- 86
2021-02-13 22:00:00 6 0 Calma 3 Sudeste 0 -- -- 82
2021-02-13 21:00:00 7.4 0 Calma 3 Norte 0 -- -- 77
2021-02-13 20:00:00 8.6 0 Calma 5 Norte 0 -- -- 74
2021-02-13 19:00:00 10.6 2 Norte 18 Norte 0 -- -- 65
2021-02-13 18:00:00 12.6 7 Norte 18 Noroeste 0 -- -- 53
2021-02-13 17:00:00 13.9 8 Noroeste 21 Norte 0 -- -- 47
2021-02-13 16:00:00 14.8 7 Noroeste 21 Noroeste 0 -- -- 42
2021-02-13 15:00:00 15.3 7 Noroeste 23 Noroeste 0 -- -- 43
2021-02-13 14:00:00 14 10 Noroeste 23 Noroeste 0 -- -- 53
2021-02-13 13:00:00 13.4 9 Oeste 21 Noroeste 0 -- -- 57
2021-02-13 08:00:00 -- -- -- -- -- -- -- -- --
2021-02-13 07:00:00 -- -- -- -- -- -- -- -- --
2021-02-13 06:00:00 -- -- -- -- -- -- -- -- --
2021-02-13 05:00:00 1.2 0 Calma 5 Sudeste 0 -- -- 97
2021-02-13 04:00:00 2 0 Calma 3 Sudeste 0 -- -- 97
2021-02-13 03:00:00 2.5 3 Sudeste 6 Sudeste 0 -- -- 96
2021-02-13 02:00:00 3.3 2 Sudeste 5 Sudeste 0 -- -- 95
2021-02-13 01:00:00 4.4 0 Calma 4 Nordeste 0 -- -- 94
2021-02-13 00:00:00 5.5 0 Calma 9 Norte 0 -- -- 92
2021-02-12 23:00:00 6.6 2 Oeste 6 Norte 0 -- -- 87
2021-02-12 22:00:00 7.2 3 Noroeste 8 Norte 0 -- -- 87
2021-02-12 21:00:00 8.3 5 Norte 14 Noroeste 0 -- -- 82
2021-02-12 20:00:00 8.8 5 Noroeste 14 Noroeste 0 -- -- 79
2021-02-12 19:00:00 9.4 3 Noroeste 15 Norte 0 -- -- 75
2021-02-12 18:00:00 10.7 7 Noroeste 23 Noroeste 0 -- -- 69
2021-02-12 17:00:00 11.4 10 Noroeste 33 Noroeste 0 -- -- 67
2021-02-12 16:00:00 12 9 Norte 36 Noroeste 0 -- -- 61
2021-02-12 15:00:00 11.6 11 Norte 32 Noroeste 0 -- -- 67
2021-02-12 14:00:00 12.2 14 Noroeste 37 Noroeste 0 -- -- 64
2021-02-12 13:00:00 11.7 12 Noroeste 36 Noroeste 0 -- -- 69
2021-02-12 12:00:00 11.8 17 Noroeste 37 Noroeste 0 -- -- 69
2021-02-12 11:00:00 10.9 17 Noroeste 40 Noroeste 0 -- -- 79
2021-02-12 10:00:00 10.3 20 Noroeste 44 Noroeste 0 -- -- 87
2021-02-12 09:00:00 9.3 19 Noroeste 32 Oeste 0.2 -- -- 96
2021-02-12 08:00:00 9.4 14 Oeste 27 Oeste 0 -- -- 95
2021-02-12 07:00:00 9.4 13 Oeste 24 Oeste 0 -- -- 94
2021-02-12 06:00:00 9.7 13 Oeste 26 Oeste 0 -- -- 93
2021-02-12 05:00:00 9.8 13 Oeste 27 Oeste 0 -- -- 93
2021-02-12 04:00:00 10 12 Oeste 24 Oeste 0 -- -- 93
2021-02-12 03:00:00 10.2 8 Oeste 16 Oeste 0 -- -- 94
2021-02-12 02:00:00 10.3 6 Oeste 15 Oeste 0 -- -- 94
2021-02-12 01:00:00 10.3 6 Oeste 13 Oeste 0 -- -- 94
2021-02-12 00:00:00 10.2 6 Oeste 17 Sudoeste 0 -- -- 94
2021-02-11 23:00:00 10.2 9 Oeste 16 Oeste 0 -- -- 94
2021-02-11 22:00:00 10.2 7 Oeste 16 Oeste 0 -- -- 93
2021-02-11 21:00:00 11 8 Oeste 12 Sudoeste 0 -- -- 90
2021-02-11 20:00:00 11.9 5 Oeste 14 Noroeste 0 -- -- 87
2021-02-11 19:00:00 12.5 6 Oeste 12 Oeste 0 -- -- 86
2021-02-11 18:00:00 13.3 4 Noroeste 12 Noroeste 0 -- -- 81
2021-02-11 17:00:00 14.3 4 Noroeste 14 Noroeste 0 -- -- 74
2021-02-11 16:00:00 14.4 5 Noroeste 18 Oeste 0 -- -- 74
2021-02-11 15:00:00 15 8 Noroeste 20 Noroeste 0 -- -- 70
2021-02-11 14:00:00 14 9 Noroeste 22 Oeste 0 -- -- 74
2021-02-11 13:00:00 14 10 Noroeste 20 Oeste 0 -- -- 73
2021-02-11 12:00:00 13.6 13 Oeste 23 Oeste 0 -- -- 75
2021-02-11 11:00:00 12.7 11 Oeste 24 Oeste 0 -- -- 80
2021-02-11 10:00:00 10.6 10 Noroeste 21 Noroeste 0 -- -- 96
2021-02-11 09:00:00 8.8 6 Oeste 15 Oeste 0 -- -- 99
2021-02-11 08:00:00 8.5 7 Oeste 13 Noroeste 0 -- -- 98
2021-02-11 07:00:00 8.3 6 Oeste 13 Oeste 0 -- -- 98
2021-02-11 06:00:00 7.8 5 Oeste 12 Oeste 0 -- -- 97
2021-02-11 05:00:00 6.9 0 Calma 9 Oeste 0 -- -- 96
2021-02-11 04:00:00 6.7 4 Oeste 10 Oeste 0 -- -- 96
2021-02-11 03:00:00 6.1 4 Oeste 9 Oeste 0 -- -- 96
2021-02-11 02:00:00 6.6 5 Oeste 14 Noroeste 0 -- -- 96
2021-02-11 01:00:00 5.5 4 Oeste 15 Oeste 0 -- -- 94
2021-02-11 00:00:00 5.7 5 Oeste 17 Oeste 0 -- -- 92
2021-02-10 23:00:00 5.2 8 Oeste 14 Oeste 0 -- -- 91
2021-02-10 22:00:00 5.9 3 Oeste 17 Oeste 0 -- -- 81
2021-02-10 21:00:00 6.9 10 Oeste 22 Noroeste 0 -- -- 80
2021-02-10 20:00:00 7.7 9 Noroeste 22 Noroeste 0 -- -- 77
2021-02-10 19:00:00 8.8 6 Noroeste 27 Noroeste 0 -- -- 72
2021-02-10 18:00:00 10.3 12 Noroeste 30 Noroeste 0 -- -- 65
2021-02-10 17:00:00 11.5 13 Noroeste 37 Noroeste 0 -- -- 60
2021-02-10 16:00:00 12.4 17 Noroeste 38 Noroeste 0 -- -- 58
2021-02-10 15:00:00 12.4 19 Noroeste 42 Oeste 0 -- -- 56
2021-02-10 14:00:00 12.3 22 Noroeste 45 Noroeste 0 -- -- 67
2021-02-10 13:00:00 11.7 24 Noroeste 48 Noroeste 0 -- -- 63
2021-02-10 12:00:00 10.6 24 Noroeste 48 Noroeste 0 -- -- 70
2021-02-10 11:00:00 10 23 Noroeste 47 Noroeste 0 -- -- 76
2021-02-10 10:00:00 8.9 21 Noroeste 51 Noroeste 0 -- -- 82
2021-02-10 09:00:00 6.8 28 Noroeste 54 Noroeste 0 -- -- 90
2021-02-10 08:00:00 6.9 28 Noroeste 58 Noroeste 0 -- -- 90
2021-02-10 07:00:00 7.2 25 Noroeste 57 Noroeste 0 -- -- 87
2021-02-10 06:00:00 6.9 29 Oeste 56 Oeste 0 -- -- 83
2021-02-10 05:00:00 6.6 24 Oeste 63 Oeste 0 -- -- 82
2021-02-10 04:00:00 6.3 30 Noroeste 60 Noroeste 0 -- -- 81
2021-02-10 03:00:00 6.5 18 Noroeste 45 Oeste 0.8 -- -- 94
2021-02-10 02:00:00 6.7 24 Oeste 46 Oeste 0.6 -- -- 95
2021-02-10 01:00:00 6.9 20 Noroeste 51 Noroeste 0.2 -- -- 93
2021-02-10 00:00:00 6.7 21 Noroeste 53 Noroeste 0.4 -- -- 95
2021-02-09 23:00:00 7.6 23 Noroeste 49 Noroeste 0 -- -- 92
2021-02-09 22:00:00 8.1 27 Noroeste 50 Oeste 0.2 -- -- 92
2021-02-09 21:00:00 8 21 Oeste 41 Oeste 0 -- -- 95
2021-02-09 20:00:00 8.1 20 Noroeste 46 Oeste 0.8 -- -- 95
2021-02-09 19:00:00 8.2 21 Noroeste 53 Oeste 0.8 -- -- 93
2021-02-09 18:00:00 8.6 25 Oeste 55 Oeste 0.6 -- -- 94
2021-02-09 17:00:00 8.5 24 Oeste 56 Oeste 1.4 -- -- 94
2021-02-09 16:00:00 8.6 30 Oeste 54 Oeste 0.6 -- -- 93
2021-02-09 15:00:00 9.2 33 Oeste 55 Oeste 0 -- -- 85
2021-02-09 14:00:00 8.3 31 Oeste 55 Oeste 0 -- -- 92
2021-02-09 13:00:00 8 24 Oeste 51 Oeste 0 -- -- 84
2021-02-09 12:00:00 8.3 29 Oeste 48 Noroeste 0 -- -- 78
2021-02-09 11:00:00 7.4 21 Oeste 40 Oeste 0 -- -- 93
2021-02-09 10:00:00 6.4 18 Oeste 38 Oeste 0 -- -- 95
2021-02-09 09:00:00 5.8 19 Oeste 37 Oeste 0 -- -- 94
2021-02-09 08:00:00 5.4 23 Oeste 45 Noroeste 0 -- -- 94
2021-02-09 07:00:00 5.3 17 Oeste 35 Oeste 0 -- -- 96
2021-02-09 06:00:00 5.3 16 Oeste 33 Oeste 0 -- -- 92
2021-02-09 05:00:00 5.5 18 Oeste 30 Oeste 0 -- -- 93
2021-02-09 04:00:00 5.6 14 Oeste 24 Oeste 0 -- -- 93
2021-02-09 03:00:00 5.6 13 Oeste 34 Oeste 0 -- -- 89
2021-02-09 02:00:00 5.5 17 Oeste 34 Oeste 0 -- -- 90
2021-02-09 01:00:00 5.3 17 Oeste 38 Oeste 0 -- -- 91
2021-02-09 00:00:00 5.6 19 Oeste 37 Noroeste 0 -- -- 90
2021-02-08 23:00:00 5.4 17 Oeste 40 Noroeste 0 -- -- 88
2021-02-08 22:00:00 5.8 22 Noroeste 46 Oeste 0 -- -- 86
2021-02-08 21:00:00 5.6 20 Noroeste 40 Oeste 0 -- -- 90
2021-02-08 20:00:00 6.2 21 Noroeste 38 Oeste 0.2 -- -- 90
2021-02-08 19:00:00 5.8 19 Noroeste 48 Noroeste 0.4 -- -- 92
2021-02-08 18:00:00 7.1 17 Noroeste 44 Noroeste 0 -- -- 82
2021-02-08 17:00:00 7.4 21 Noroeste 46 Noroeste 1 -- -- 85
2021-02-08 16:00:00 7.6 23 Noroeste 45 Noroeste 0.6 -- -- 84
2021-02-08 15:00:00 6.6 27 Noroeste 54 Noroeste 0 -- -- 83
2021-02-08 14:00:00 6.6 18 Oeste 42 Oeste 0.6 -- -- 92
2021-02-08 13:00:00 7 21 Noroeste 40 Noroeste 0 -- -- 80
2021-02-08 12:00:00 6.5 19 Noroeste 47 Noroeste 0 -- -- 84
2021-02-08 11:00:00 6.3 23 Noroeste 45 Noroeste 0 -- -- 84
2021-02-08 10:00:00 6.1 23 Noroeste 49 Noroeste 0 -- -- 90
2021-02-08 09:00:00 5.7 24 Noroeste 57 Oeste 1 -- -- 88
2021-02-08 08:00:00 6.1 25 Noroeste 54 Noroeste 4.2 -- -- 94
2021-02-08 07:00:00 6.4 21 Oeste 39 Oeste 1.6 -- -- 97
2021-02-08 06:00:00 6 16 Oeste 39 Oeste 0.2 -- -- 96
2021-02-08 05:00:00 5.5 22 Oeste 40 Oeste 0 -- -- 96
2021-02-08 04:00:00 5.1 23 Oeste 49 Oeste 0 -- -- 96
2021-02-08 03:00:00 4.7 22 Oeste 42 Oeste 0 -- -- 96
2021-02-08 02:00:00 4.4 17 Oeste 36 Oeste 0 -- -- 93
2021-02-08 01:00:00 4.2 16 Oeste 31 Oeste 0 -- -- 92
2021-02-08 00:00:00 3.9 17 Oeste 33 Oeste 0.2 -- -- 93
2021-02-07 23:00:00 3.7 18 Oeste 37 Oeste 0.6 -- -- 94
2021-02-07 22:00:00 3.9 13 Noroeste 35 Oeste 0.2 -- -- 90
2021-02-07 21:00:00 4.7 21 Noroeste 40 Noroeste 0 -- -- 82
2021-02-07 20:00:00 5.2 11 Noroeste 27 Noroeste 0 -- -- 85
2021-02-07 19:00:00 5.7 13 Noroeste 35 Noroeste 0 -- -- 81
2021-02-07 18:00:00 6.7 17 Noroeste 42 Noroeste 0 -- -- 78
2021-02-07 17:00:00 7 18 Noroeste 37 Noroeste 0 -- -- 79
2021-02-07 16:00:00 7.5 16 Noroeste 37 Noroeste 0 -- -- 82
2021-02-07 15:00:00 8 13 Noroeste 27 Noroeste 0 -- -- 89
2021-02-07 14:00:00 6 9 Noroeste 22 Noroeste 0.2 -- -- 95
2021-02-07 13:00:00 5.9 4 Noroeste 16 Norte 0.2 -- -- 94
2021-02-07 12:00:00 5.9 6 Norte 17 Norte 0.2 -- -- 93
2021-02-07 11:00:00 5.3 5 Noroeste 14 Norte 0.2 -- -- 98
2021-02-07 10:00:00 5 4 Norte 16 Norte 0 -- -- 98
2021-02-07 09:00:00 5 7 Norte 23 Norte 0.2 -- -- 98
2021-02-07 08:00:00 5.3 8 Noroeste 20 Noroeste 0 -- -- 97
2021-02-07 07:00:00 5.3 6 Noroeste 19 Norte 0.2 -- -- 98
2021-02-07 06:00:00 5.3 5 Noroeste 23 Oeste 0.2 -- -- 97
2021-02-07 05:00:00 5.8 8 Noroeste 25 Noroeste 0 -- -- 97
2021-02-07 04:00:00 5.8 10 Noroeste 22 Noroeste 0.4 -- -- 97
2021-02-07 03:00:00 6 10 Noroeste 22 Noroeste 0.2 -- -- 96
2021-02-07 02:00:00 6.1 10 Noroeste 19 Oeste 0 -- -- 96
2021-02-07 01:00:00 6 11 Oeste 21 Oeste 0.4 -- -- 96
2021-02-07 00:00:00 6.3 9 Noroeste 18 Oeste 0 -- -- 93
2021-02-06 23:00:00 6.3 9 Oeste 18 Oeste 0 -- -- 93
2021-02-06 22:00:00 6.4 9 Oeste 16 Oeste 0 -- -- 92
2021-02-06 21:00:00 6.7 9 Oeste 17 Oeste 0 -- -- 91
2021-02-06 20:00:00 6.9 6 Oeste 20 Oeste 0 -- -- 90
2021-02-06 19:00:00 7 9 Oeste 17 Oeste 0 -- -- 90
2021-02-06 18:00:00 7.3 10 Oeste 29 Oeste 0.2 -- -- 88
2021-02-06 17:00:00 7.1 14 Oeste 31 Oeste 0.2 -- -- 89
2021-02-06 16:00:00 7.8 11 Oeste 30 Oeste 0 -- -- 88
2021-02-06 15:00:00 8.3 15 Oeste 32 Oeste 0.2 -- -- 85
2021-02-06 14:00:00 7.5 14 Oeste 29 Oeste 0.2 -- -- 87
2021-02-06 13:00:00 7.5 15 Oeste 31 Sudoeste 0 -- -- 86
2021-02-06 12:00:00 7.7 21 Oeste 41 Oeste 0 -- -- 80
2021-02-06 11:00:00 6.6 21 Oeste 41 Oeste 0.2 -- -- 86
2021-02-06 10:00:00 6.5 10 Oeste 21 Oeste 0.2 -- -- 92
2021-02-06 09:00:00 6.3 0 Calma 10 Sudoeste 0 -- -- 92
2021-02-06 08:00:00 6 3 Sur 14 Oeste 0 -- -- 95
2021-02-06 07:00:00 6.1 3 Sudoeste 11 Sudoeste 0 -- -- 95
2021-02-06 06:00:00 5.8 0 Calma 5 Sur 0 -- -- 97
2021-02-06 05:00:00 6.3 2 Sudoeste 10 Oeste 0 -- -- 96
2021-02-06 04:00:00 6.6 5 Oeste 13 Sudoeste 1.2 -- -- 97
2021-02-06 03:00:00 7.1 4 Oeste 7 Oeste 0 -- -- 97
2021-02-06 02:00:00 7.2 3 Sudoeste 10 Oeste 0 -- -- 96
2021-02-06 01:00:00 6.9 7 Oeste 12 Oeste 0 -- -- 95
2021-02-06 00:00:00 7.1 5 Oeste 30 Sur 1 -- -- 93
2021-02-05 23:00:00 8.1 20 Sur 34 Sudoeste 4.2 -- -- 87
2021-02-05 22:00:00 7.5 10 Sudoeste 20 Sudoeste 5.8 -- -- 93
2021-02-05 21:00:00 6.8 5 Noroeste 51 Noroeste 4.6 -- -- 89
2021-02-05 20:00:00 11.1 9 Sur 23 Sur 0 -- -- 71
2021-02-05 19:00:00 11.9 9 Sur 27 Sur 0 -- -- 66
2021-02-05 18:00:00 14.2 12 Sur 32 Sudeste 0 -- -- 58
2021-02-05 17:00:00 17.4 9 Sur 27 Sur 0 -- -- 44
2021-02-05 16:00:00 18.6 10 Sur 26 Sur 0 -- -- 40
2021-02-05 15:00:00 19.2 11 Sur 24 Sur 0 -- -- 39
2021-02-05 14:00:00 18.2 11 Sudeste 29 Sudeste 0 -- -- 44
2021-02-05 13:00:00 17.9 11 Sur 30 Sur 0 -- -- 44
2021-02-05 12:00:00 15.7 13 Sur 26 Sur 0 -- -- 48
2021-02-05 11:00:00 13 11 Sur 30 Sudeste 0 -- -- 60
2021-02-05 10:00:00 11 10 Sur 30 Sudeste 0 -- -- 67
2021-02-05 09:00:00 7.9 10 Sur 34 Sudeste 0 -- -- 79
2021-02-05 08:00:00 8.1 12 Sur 32 Sudeste 0 -- -- 77
2021-02-05 07:00:00 8.9 10 Sur 33 Sur 0 -- -- 73
2021-02-05 06:00:00 9.6 13 Sur 33 Sudeste 0 -- -- 69
2021-02-05 05:00:00 10.2 11 Sur 27 Sur 0 -- -- 64
2021-02-05 04:00:00 10.4 10 Sur 28 Sudeste 0 -- -- 65
2021-02-05 03:00:00 10.7 7 Sur 24 Sudeste 0 -- -- 67
2021-02-05 02:00:00 11 7 Sur 16 Sudeste 0 -- -- 69
2021-02-05 01:00:00 8.7 3 Sudeste 6 Sudeste 0 -- -- 77
2021-02-05 00:00:00 8.5 2 Este 9 Sudeste 0 -- -- 80
2021-02-04 23:00:00 9.1 3 Sur 9 Nordeste 0 -- -- 78
2021-02-04 22:00:00 8.8 5 Norte 12 Norte 0 -- -- 80
2021-02-04 21:00:00 10.2 8 Nordeste 14 Este 0 -- -- 75
2021-02-04 20:00:00 10.4 2 Sudeste 8 Este 0 -- -- 77
2021-02-04 19:00:00 11.3 2 Nordeste 9 Nordeste 0 -- -- 74
2021-02-04 18:00:00 13.6 5 Norte 16 Norte 0 -- -- 64
2021-02-04 17:00:00 16.9 9 Noroeste 32 Noroeste 0 -- -- 50
2021-02-04 16:00:00 18.6 17 Noroeste 40 Oeste 0 -- -- 37
2021-02-04 15:00:00 18.8 16 Oeste 47 Oeste 0 -- -- 36
2021-02-04 14:00:00 18.7 18 Sudoeste 42 Oeste 0 -- -- 33
2021-02-04 13:00:00 18.2 18 Oeste 42 Noroeste 0 -- -- 35
2021-02-04 12:00:00 16.5 7 Sur 18 Sur 0 -- -- 50
2021-02-04 11:00:00 13.3 7 Sur 18 Sur 0 -- -- 66
2021-02-04 10:00:00 7.5 5 Sur 11 Sudoeste 0 -- -- 99
2021-02-04 09:00:00 5.5 2 Sur 7 Sur 0 -- -- 100
2021-02-04 08:00:00 5.3 5 Sur 13 Sudeste 0 -- -- 100
2021-02-04 07:00:00 5.6 3 Sur 8 Sur 0 -- -- 99
2021-02-04 06:00:00 5.6 4 Sur 12 Sudoeste 0 -- -- 99
2021-02-04 05:00:00 5.5 8 Sudoeste 15 Sudoeste 0 -- -- 98
2021-02-04 04:00:00 4.7 0 Calma 5 Sudoeste 0 -- -- 95
2021-02-04 03:00:00 5.4 4 Sur 8 Sur 0 -- -- 94
2021-02-04 02:00:00 5.7 6 Sudoeste 8 Sudoeste 0 -- -- 93
2021-02-04 01:00:00 5.7 4 Sur 9 Sudoeste 0 -- -- 92
2021-02-04 00:00:00 6.2 4 Sudoeste 8 Sudoeste 0 -- -- 90
2021-02-03 23:00:00 6.7 3 Sudoeste 5 Sur 0 -- -- 87
2021-02-03 22:00:00 7.2 0 Calma 6 Sudoeste 0 -- -- 85
2021-02-03 21:00:00 8.5 3 Sudoeste 5 Oeste 0 -- -- 79
2021-02-03 20:00:00 9.6 0 Calma 9 Oeste 0 -- -- 74
2021-02-03 19:00:00 10.8 6 Oeste 13 Oeste 0 -- -- 70
2021-02-03 18:00:00 12.6 7 Oeste 18 Oeste 0 -- -- 64
2021-02-03 17:00:00 13.8 10 Oeste 21 Oeste 0 -- -- 62
2021-02-03 16:00:00 14.3 11 Oeste 23 Oeste 0 -- -- 60
2021-02-03 15:00:00 15.4 9 Oeste 25 Oeste 0 -- -- 59
2021-02-03 14:00:00 14.8 9 Sudoeste 23 Oeste 0 -- -- 62
2021-02-03 13:00:00 13.4 12 Oeste 24 Oeste 0 -- -- 65
2021-02-03 12:00:00 11.8 16 Oeste 26 Sudoeste 0 -- -- 68
2021-02-03 11:00:00 11.1 13 Oeste 27 Oeste 0 -- -- 69
2021-02-03 10:00:00 7.9 12 Oeste 22 Oeste 0 -- -- 82
2021-02-03 09:00:00 6.5 10 Oeste 18 Oeste 0 -- -- 88
2021-02-03 08:00:00 6.8 9 Oeste 22 Noroeste 0 -- -- 87
2021-02-03 07:00:00 7.3 10 Oeste 22 Oeste 0 -- -- 85
2021-02-03 06:00:00 7.5 7 Oeste 21 Oeste 0 -- -- 87
2021-02-03 05:00:00 7.5 10 Oeste 18 Oeste 0 -- -- 87
2021-02-03 04:00:00 7.7 9 Oeste 18 Oeste 0 -- -- 88
2021-02-03 03:00:00 7.8 8 Oeste 24 Oeste 0 -- -- 88
2021-02-03 02:00:00 7.8 12 Oeste 25 Oeste 0 -- -- 87
2021-02-03 01:00:00 7.9 10 Oeste 26 Oeste 0 -- -- 88
2021-02-03 00:00:00 7.9 12 Oeste 25 Oeste 0 -- -- 93
2021-02-02 23:00:00 8.3 9 Oeste 22 Oeste 0 -- -- 92
2021-02-02 22:00:00 7.9 6 Noroeste 15 Oeste 0 -- -- 93
2021-02-02 21:00:00 8 3 Noroeste 13 Noroeste 0 -- -- 93
2021-02-02 20:00:00 8.7 4 Noroeste 12 Oeste 0 -- -- 91
2021-02-02 19:00:00 10.4 4 Norte 15 Oeste 0 -- -- 84
2021-02-02 18:00:00 13.3 8 Oeste 19 Oeste 0 -- -- 70
2021-02-02 17:00:00 14.6 8 Noroeste 26 Oeste 0 -- -- 65
2021-02-02 16:00:00 15.5 11 Oeste 27 Oeste 0 -- -- 61
2021-02-02 15:00:00 15.6 13 Oeste 28 Noroeste 0 -- -- 61
2021-02-02 14:00:00 15.1 12 Noroeste 24 Oeste 0 -- -- 61
2021-02-02 13:00:00 14.4 14 Oeste 28 Oeste 0 -- -- 63
2021-02-02 12:00:00 11.9 14 Oeste 26 Oeste 0 -- -- 78
2021-02-02 11:00:00 9.1 10 Oeste 21 Oeste 0 -- -- 89
2021-02-02 10:00:00 7.3 10 Oeste 19 Oeste 0 -- -- 98
2021-02-02 09:00:00 6.6 9 Oeste 20 Oeste 0 -- -- 98
2021-02-02 08:00:00 6.6 12 Oeste 22 Oeste 0 -- -- 97
2021-02-02 07:00:00 6.8 11 Oeste 21 Oeste 0 -- -- 95
2021-02-02 06:00:00 6.9 9 Oeste 18 Oeste 0 -- -- 95
2021-02-02 05:00:00 6.8 10 Oeste 21 Oeste 0 -- -- 95
2021-02-02 04:00:00 6.5 7 Oeste 16 Oeste 0 -- -- 93
2021-02-02 03:00:00 6.5 8 Oeste 15 Oeste 0 -- -- 93
2021-02-02 02:00:00 6.2 8 Oeste 19 Oeste 0 -- -- 93
2021-02-02 01:00:00 7 11 Oeste 30 Noroeste 0 -- -- 90
2021-02-02 00:00:00 7.8 15 Noroeste 29 Noroeste 0 -- -- 89
2021-02-01 23:00:00 7.9 16 Noroeste 32 Noroeste 0 -- -- 88
2021-02-01 22:00:00 7.3 12 Oeste 28 Noroeste 0 -- -- 88
2021-02-01 21:00:00 7.7 10 Noroeste 29 Oeste 0 -- -- 87
2021-02-01 20:00:00 8.1 17 Noroeste 36 Oeste 0 -- -- 86
2021-02-01 19:00:00 8.5 15 Noroeste 35 Noroeste 0 -- -- 85
2021-02-01 18:00:00 9.4 15 Noroeste 42 Noroeste 0 -- -- 82
2021-02-01 17:00:00 10.8 19 Noroeste 42 Noroeste 0 -- -- 77
2021-02-01 16:00:00 11.1 21 Noroeste 45 Noroeste 0 -- -- 76
2021-02-01 15:00:00 11.8 20 Noroeste 41 Norte 0 -- -- 74
2021-02-01 14:00:00 12.5 21 Noroeste 42 Noroeste 0 -- -- 73
2021-02-01 13:00:00 12.9 21 Oeste 41 Noroeste 0 -- -- 73
2021-02-01 12:00:00 12.4 18 Oeste 42 Oeste 0 -- -- 74
2021-02-01 11:00:00 10.3 18 Oeste 38 Oeste 0 -- -- 82
2021-02-01 10:00:00 8.5 19 Noroeste 46 Oeste 0 -- -- 88
2021-02-01 09:00:00 8.2 20 Oeste 42 Oeste 0 -- -- 90
2021-02-01 08:00:00 8.2 17 Oeste 39 Oeste 0 -- -- 91
2021-02-01 07:00:00 8.1 19 Oeste 45 Oeste 0 -- -- 91
2021-02-01 06:00:00 8.5 18 Oeste 41 Noroeste 0 -- -- 92
2021-02-01 05:00:00 8.6 20 Oeste 48 Oeste 0 -- -- 92
2021-02-01 04:00:00 8.9 22 Oeste 44 Oeste 0 -- -- 92
2021-02-01 03:00:00 9.3 20 Noroeste 42 Noroeste 0 -- -- 92
2021-02-01 02:00:00 9.3 15 Noroeste 37 Noroeste 0 -- -- 93
2021-02-01 01:00:00 9.8 19 Noroeste 49 Noroeste 0 -- -- 95
2021-02-01 00:00:00 9.9 21 Noroeste 46 Oeste 0.6 -- -- 98
2021-01-31 23:00:00 9.4 18 Oeste 38 Oeste 0.4 -- -- 99
2021-01-31 22:00:00 9.5 19 Noroeste 42 Noroeste 0 -- -- 99
2021-01-31 21:00:00 8.9 18 Oeste 39 Oeste 0.2 -- -- 99
2021-01-31 20:00:00 8.3 17 Oeste 33 Oeste 0.2 -- -- 99
2021-01-31 19:00:00 8.3 15 Oeste 34 Oeste 0 -- -- 98
2021-01-31 18:00:00 8.6 18 Oeste 40 Noroeste 0 -- -- 98
2021-01-31 17:00:00 8.4 23 Noroeste 42 Oeste 0.8 -- -- 98
2021-01-31 16:00:00 8.2 23 Oeste 44 Noroeste 1 -- -- 98
2021-01-31 15:00:00 8 18 Oeste 38 Oeste 0.4 -- -- 98
2021-01-31 14:00:00 7.5 16 Noroeste 41 Oeste 0 -- -- 97
2021-01-31 13:00:00 6.9 19 Oeste 39 Oeste 0 -- -- 97
2021-01-31 12:00:00 6.5 18 Noroeste 37 Noroeste 0.4 -- -- 96
2021-01-31 11:00:00 6.5 19 Noroeste 38 Oeste 0 -- -- 91
2021-01-31 10:00:00 6 21 Noroeste 41 Oeste 0 -- -- 91
2021-01-31 09:00:00 5.6 21 Noroeste 42 Noroeste 0 -- -- 91
2021-01-31 08:00:00 5.3 21 Noroeste 40 Noroeste 0 -- -- 90
2021-01-31 07:00:00 5.1 17 Noroeste 42 Noroeste 0 -- -- 90
2021-01-31 06:00:00 5.1 19 Noroeste 41 Noroeste 0 -- -- 90
2021-01-31 05:00:00 5.2 20 Noroeste 42 Noroeste 0 -- -- 90
2021-01-31 04:00:00 5.3 21 Noroeste 39 Oeste 0 -- -- 90
2021-01-31 03:00:00 5.5 19 Noroeste 41 Noroeste 0 -- -- 89
2021-01-31 02:00:00 5.3 19 Noroeste 42 Noroeste 0 -- -- 88
2021-01-31 01:00:00 5.4 18 Noroeste 41 Noroeste 0 -- -- 86
2021-01-31 00:00:00 5.8 19 Noroeste 41 Noroeste 0 -- -- 83
2021-01-30 23:00:00 6.5 19 Noroeste 50 Noroeste 0 -- -- 81
2021-01-30 22:00:00 6.9 24 Noroeste 44 Noroeste 0 -- -- 80
2021-01-30 21:00:00 7.5 23 Noroeste 47 Oeste 0 -- -- 79
2021-01-30 20:00:00 7.7 21 Noroeste 46 Noroeste 0 -- -- 79
2021-01-30 19:00:00 7.8 19 Noroeste 46 Noroeste 0 -- -- 74
2021-01-30 18:00:00 8.5 24 Noroeste 51 Noroeste 0 -- -- 67
2021-01-30 17:00:00 9.4 23 Noroeste 54 Noroeste 0 -- -- 64
2021-01-30 16:00:00 10.2 26 Noroeste 58 Noroeste 0 -- -- 61
2021-01-30 15:00:00 10.9 28 Noroeste 55 Oeste 0 -- -- 60
2021-01-30 14:00:00 11.3 27 Noroeste 56 Noroeste 0 -- -- 63
2021-01-30 13:00:00 11 27 Noroeste 52 Noroeste 0 -- -- 68
2021-01-30 12:00:00 10.7 25 Noroeste 55 Noroeste 0 -- -- 78
2021-01-30 11:00:00 9.2 26 Noroeste 51 Oeste 0.4 -- -- 92
2021-01-30 10:00:00 8.2 22 Oeste 36 Oeste 1.2 -- -- 97
2021-01-30 09:00:00 8 21 Oeste 43 Oeste 0.2 -- -- 96
2021-01-30 08:00:00 8.6 22 Oeste 48 Oeste 0 -- -- 92
2021-01-30 07:00:00 8.3 18 Oeste 32 Oeste 0 -- -- 98
2021-01-30 06:00:00 8.3 15 Oeste 36 Oeste 0 -- -- 99
2021-01-30 05:00:00 7.9 16 Oeste 39 Sudoeste 0 -- -- 99
2021-01-30 04:00:00 8.2 18 Oeste 35 Oeste 0 -- -- 99
2021-01-30 03:00:00 8.2 14 Oeste 31 Oeste 0 -- -- 99
2021-01-30 02:00:00 8.3 11 Oeste 23 Sudoeste 0 -- -- 98
2021-01-30 01:00:00 8.3 8 Oeste 21 Oeste 0 -- -- 97
2021-01-30 00:00:00 8.4 9 Oeste 18 Oeste 0 -- -- 94